sensor_id;sensor_type;location;lat;lon;timestamp;pressure;altitude;pressure_sealevel;temperature;humidity
11448;BME280;43755;49.736;8.734;2023-04-23T00:01:54;97168.78;;;11.50;100.00
11448;BME280;43755;49.736;8.734;2023-04-23T00:03:57;97158.88;;;11.54;100.00
11448;BME280;43755;49.736;8.734;2023-04-23T00:05:58;97159.06;;;11.50;100.00
11448;BME280;43755;49.736;8.734;2023-04-23T00:08:03;97163.88;;;11.44;100.00
11448;BME280;43755;49.736;8.734;2023-04-23T00:10:07;97158.41;;;11.47;100.00
11448;BME280;43755;49.736;8.734;2023-04-23T00:12:10;97161.34;;;11.42;100.00
11448;BME280;43755;49.736;8.734;2023-04-23T00:14:12;97160.56;;;11.40;100.00
11448;BME280;43755;49.736;8.734;2023-04-23T00:16:14;97170.28;;;11.40;100.00
11448;BME280;43755;49.736;8.734;2023-04-23T00:18:15;97164.91;;;11.41;100.00
11448;BME280;43755;49.736;8.734;2023-04-23T00:20:17;97163.22;;;11.40;100.00
11448;BME280;43755;49.736;8.734;2023-04-23T00:22:19;97159.50;;;11.43;100.00
11448;BME280;43755;49.736;8.734;2023-04-23T00:24:21;97162.66;;;11.49;100.00
11448;BME280;43755;49.736;8.734;2023-04-23T00:26:24;97163.00;;;11.43;100.00
11448;BME280;43755;49.736;8.734;2023-04-23T00:28:25;97165.94;;;11.39;100.00
11448;BME280;43755;49.736;8.734;2023-04-23T00:30:27;97161.59;;;11.38;100.00
11448;BME280;43755;49.736;8.734;2023-04-23T00:32:28;97157.22;;;11.37;100.00
11448;BME280;43755;49.736;8.734;2023-04-23T00:34:30;97160.06;;;11.34;100.00
11448;BME280;43755;49.736;8.734;2023-04-23T00:36:31;97160.06;;;11.34;100.00
11448;BME280;43755;49.736;8.734;2023-04-23T00:38:33;97167.59;;;11.26;100.00
11448;BME280;43755;49.736;8.734;2023-04-23T00:40:35;97164.88;;;11.27;100.00
11448;BME280;43755;49.736;8.734;2023-04-23T00:42:38;97160.16;;;11.32;100.00
11448;BME280;43755;49.736;8.734;2023-04-23T00:44:40;97157.63;;;11.31;100.00
11448;BME280;43755;49.736;8.734;2023-04-23T00:46:42;97159.97;;;11.35;100.00
11448;BME280;43755;49.736;8.734;2023-04-23T00:48:44;97162.72;;;11.34;100.00
11448;BME280;43755;49.736;8.734;2023-04-23T00:50:46;97162.13;;;11.29;100.00
11448;BME280;43755;49.736;8.734;2023-04-23T00:52:47;97165.44;;;11.32;100.00
11448;BME280;43755;49.736;8.734;2023-04-23T00:54:48;97156.41;;;11.36;100.00
11448;BME280;43755;49.736;8.734;2023-04-23T00:56:50;97160.84;;;11.36;100.00
11448;BME280;43755;49.736;8.734;2023-04-23T00:58:54;97161.69;;;11.36;100.00
11448;BME280;43755;49.736;8.734;2023-04-23T01:00:56;97161.69;;;11.36;100.00
11448;BME280;43755;49.736;8.734;2023-04-23T01:02:58;97167.00;;;11.36;100.00
11448;BME280;43755;49.736;8.734;2023-04-23T01:05:00;97159.50;;;11.29;100.00
11448;BME280;43755;49.736;8.734;2023-04-23T01:07:03;97167.38;;;11.15;100.00
11448;BME280;43755;49.736;8.734;2023-04-23T01:09:05;97160.38;;;11.14;100.00
11448;BME280;43755;49.736;8.734;2023-04-23T01:11:10;97167.94;;;11.20;100.00
11448;BME280;43755;49.736;8.734;2023-04-23T01:13:13;97171.66;;;11.17;100.00
11448;BME280;43755;49.736;8.734;2023-04-23T01:15:16;97166.16;;;11.20;100.00
11448;BME280;43755;49.736;8.734;2023-04-23T01:17:18;97166.50;;;11.14;100.00
11448;BME280;43755;49.736;8.734;2023-04-23T01:19:20;97166.44;;;11.16;100.00
11448;BME280;43755;49.736;8.734;2023-04-23T01:21:22;97164.44;;;11.19;100.00
11448;BME280;43755;49.736;8.734;2023-04-23T01:23:25;97166.44;;;11.16;100.00
11448;BME280;43755;49.736;8.734;2023-04-23T01:25:27;97166.72;;;11.11;100.00
11448;BME280;43755;49.736;8.734;2023-04-23T01:27:28;97165.94;;;11.09;100.00
11448;BME280;43755;49.736;8.734;2023-04-23T01:29:30;97162.28;;;11.12;100.00
11448;BME280;43755;49.736;8.734;2023-04-23T01:31:32;97161.91;;;11.18;100.00
11448;BME280;43755;49.736;8.734;2023-04-23T01:33:34;97161.91;;;11.18;100.00
11448;BME280;43755;49.736;8.734;2023-04-23T01:35:36;97171.81;;;11.14;100.00
11448;BME280;43755;49.736;8.734;2023-04-23T01:37:38;97175.59;;;11.10;100.00
11448;BME280;43755;49.736;8.734;2023-04-23T01:39:41;97178.91;;;11.14;100.00
11448;BME280;43755;49.736;8.734;2023-04-23T01:41:42;97184.53;;;11.07;100.00
11448;BME280;43755;49.736;8.734;2023-04-23T01:43:44;97188.31;;;11.03;100.00
11448;BME280;43755;49.736;8.734;2023-04-23T01:45:46;97184.72;;;11.04;100.00
11448;BME280;43755;49.736;8.734;2023-04-23T01:47:47;97182.00;;;11.06;100.00
11448;BME280;43755;49.736;8.734;2023-04-23T01:49:49;97190.22;;;11.01;100.00
11448;BME280;43755;49.736;8.734;2023-04-23T01:51:50;97193.81;;;11.00;100.00
11448;BME280;43755;49.736;8.734;2023-04-23T01:53:52;97194.22;;;10.93;100.00
11448;BME280;43755;49.736;8.734;2023-04-23T01:55:55;97193.56;;;10.89;100.00
11448;BME280;43755;49.736;8.734;2023-04-23T01:57:57;97192.34;;;10.95;100.00
11448;BME280;43755;49.736;8.734;2023-04-23T02:00:03;97190.13;;;10.87;100.00
11448;BME280;43755;49.736;8.734;2023-04-23T02:02:07;97198.22;;;10.84;100.00
11448;BME280;43755;49.736;8.734;2023-04-23T02:04:13;97203.44;;;10.86;100.00
11448;BME280;43755;49.736;8.734;2023-04-23T02:06:16;97203.38;;;10.87;100.00
11448;BME280;43755;49.736;8.734;2023-04-23T02:08:17;97197.03;;;10.90;100.00
11448;BME280;43755;49.736;8.734;2023-04-23T02:10:19;97188.28;;;10.89;100.00
11448;BME280;43755;49.736;8.734;2023-04-23T02:12:22;97191.94;;;10.87;100.00
11448;BME280;43755;49.736;8.734;2023-04-23T02:14:23;97200.88;;;10.84;100.00
11448;BME280;43755;49.736;8.734;2023-04-23T02:16:25;97199.69;;;10.90;100.00
11448;BME280;43755;49.736;8.734;2023-04-23T02:18:27;97206.88;;;10.88;100.00
11448;BME280;43755;49.736;8.734;2023-04-23T02:20:28;97204.81;;;10.93;100.00
11448;BME280;43755;49.736;8.734;2023-04-23T02:22:30;97217.38;;;10.89;100.00
11448;BME280;43755;49.736;8.734;2023-04-23T02:24:31;97204.03;;;10.91;100.00
11448;BME280;43755;49.736;8.734;2023-04-23T02:26:33;97202.09;;;10.94;100.00
11448;BME280;43755;49.736;8.734;2023-04-23T02:28:35;97198.75;;;10.91;100.00
11448;BME280;43755;49.736;8.734;2023-04-23T02:30:37;97202.09;;;10.94;100.00
11448;BME280;43755;49.736;8.734;2023-04-23T02:32:39;97200.19;;;10.96;100.00
11448;BME280;43755;49.736;8.734;2023-04-23T02:34:42;97203.59;;;10.98;100.00
11448;BME280;43755;49.736;8.734;2023-04-23T02:36:43;97196.59;;;10.97;100.00
11448;BME280;43755;49.736;8.734;2023-04-23T02:38:44;97203.78;;;10.95;100.00
11448;BME280;43755;49.736;8.734;2023-04-23T02:40:48;97202.44;;;10.88;100.00
11448;BME280;43755;49.736;8.734;2023-04-23T02:42:49;97196.09;;;10.91;100.00
11448;BME280;43755;49.736;8.734;2023-04-23T02:44:52;97192.78;;;10.87;100.00
11448;BME280;43755;49.736;8.734;2023-04-23T02:46:53;97199.59;;;10.91;100.00
11448;BME280;43755;49.736;8.734;2023-04-23T02:48:55;97204.16;;;10.89;100.00
11448;BME280;43755;49.736;8.734;2023-04-23T02:50:56;97203.03;;;10.93;100.00
11448;BME280;43755;49.736;8.734;2023-04-23T02:52:58;97213.53;;;10.95;100.00
11448;BME280;43755;49.736;8.734;2023-04-23T02:55:00;97212.81;;;10.91;100.00
11448;BME280;43755;49.736;8.734;2023-04-23T02:57:03;97214.88;;;10.86;100.00
11448;BME280;43755;49.736;8.734;2023-04-23T02:59:04;97214.09;;;10.84;100.00
11448;BME280;43755;49.736;8.734;2023-04-23T03:01:07;97221.97;;;10.86;100.00
11448;BME280;43755;49.736;8.734;2023-04-23T03:03:09;97211.31;;;10.87;100.00
11448;BME280;43755;49.736;8.734;2023-04-23T03:05:10;97215.41;;;10.93;100.00
11448;BME280;43755;49.736;8.734;2023-04-23T03:07:12;97217.19;;;10.92;100.00
11448;BME280;43755;49.736;8.734;2023-04-23T03:09:16;97211.75;;;10.95;100.00
11448;BME280;43755;49.736;8.734;2023-04-23T03:11:17;97205.41;;;10.98;100.00
11448;BME280;43755;49.736;8.734;2023-04-23T03:13:19;97203.78;;;10.95;100.00
11448;BME280;43755;49.736;8.734;2023-04-23T03:15:21;97198.50;;;10.95;100.00
11448;BME280;43755;49.736;8.734;2023-04-23T03:17:24;97199.34;;;10.96;100.00
11448;BME280;43755;49.736;8.734;2023-04-23T03:19:25;97197.47;;;10.98;100.00
11448;BME280;43755;49.736;8.734;2023-04-23T03:21:26;97197.88;;;10.90;100.00
11448;BME280;43755;49.736;8.734;2023-04-23T03:23:28;97204.03;;;10.91;100.00
11448;BME280;43755;49.736;8.734;2023-04-23T03:25:29;97207.47;;;10.93;100.00
11448;BME280;43755;49.736;8.734;2023-04-23T03:27:31;97217.53;;;10.86;100.00
11448;BME280;43755;49.736;8.734;2023-04-23T03:29:32;97207.22;;;10.82;100.00
11448;BME280;43755;49.736;8.734;2023-04-23T03:31:33;97209.88;;;10.82;100.00
11448;BME280;43755;49.736;8.734;2023-04-23T03:33:36;97210.88;;;10.79;100.00
11448;BME280;43755;49.736;8.734;2023-04-23T03:35:38;97212.78;;;10.77;100.00
11448;BME280;43755;49.736;8.734;2023-04-23T03:37:39;97215.56;;;10.74;100.00
11448;BME280;43755;49.736;8.734;2023-04-23T03:39:40;97215.66;;;10.73;100.00
11448;BME280;43755;49.736;8.734;2023-04-23T03:41:42;97212.84;;;10.76;100.00
11448;BME280;43755;49.736;8.734;2023-04-23T03:43:43;97219.16;;;10.73;100.00
11448;BME280;43755;49.736;8.734;2023-04-23T03:45:45;97215.75;;;10.71;100.00
11448;BME280;43755;49.736;8.734;2023-04-23T03:47:46;97225.75;;;10.66;100.00
11448;BME280;43755;49.736;8.734;2023-04-23T03:49:49;97220.34;;;10.67;100.00
11448;BME280;43755;49.736;8.734;2023-04-23T03:51:50;97225.56;;;10.69;100.00
11448;BME280;43755;49.736;8.734;2023-04-23T03:53:51;97224.88;;;10.65;100.00
11448;BME280;43755;49.736;8.734;2023-04-23T03:55:53;97214.03;;;10.70;100.00
11448;BME280;43755;49.736;8.734;2023-04-23T03:57:54;97218.41;;;10.71;100.00
11448;BME280;43755;49.736;8.734;2023-04-23T03:59:56;97217.81;;;10.66;100.00
11448;BME280;43755;49.736;8.734;2023-04-23T04:01:57;97216.16;;;10.63;100.00
11448;BME280;43755;49.736;8.734;2023-04-23T04:03:58;97219.50;;;10.67;100.00
11448;BME280;43755;49.736;8.734;2023-04-23T04:06:01;97214.19;;;10.67;100.00
11448;BME280;43755;49.736;8.734;2023-04-23T04:08:03;97223.31;;;10.61;100.00
11448;BME280;43755;49.736;8.734;2023-04-23T04:10:05;97219.59;;;10.65;100.00
11448;BME280;43755;49.736;8.734;2023-04-23T04:12:07;97223.94;;;10.66;100.00
11448;BME280;43755;49.736;8.734;2023-04-23T04:14:08;97205.75;;;10.60;100.00
11448;BME280;43755;49.736;8.734;2023-04-23T04:16:10;97213.44;;;10.65;100.00
11448;BME280;43755;49.736;8.734;2023-04-23T04:18:11;97207.47;;;10.61;100.00
11448;BME280;43755;49.736;8.734;2023-04-23T04:20:13;97212.66;;;10.63;100.00
11448;BME280;43755;49.736;8.734;2023-04-23T04:22:15;97211.75;;;10.64;100.00
11448;BME280;43755;49.736;8.734;2023-04-23T04:24:17;97206.44;;;10.64;100.00
11448;BME280;43755;49.736;8.734;2023-04-23T04:26:18;97214.38;;;10.64;100.00
11448;BME280;43755;49.736;8.734;2023-04-23T04:28:20;97225.75;;;10.66;100.00
11448;BME280;43755;49.736;8.734;2023-04-23T04:30:21;97224.25;;;10.60;100.00
11448;BME280;43755;49.736;8.734;2023-04-23T04:32:22;97221.72;;;10.59;100.00
11448;BME280;43755;49.736;8.734;2023-04-23T04:34:24;97221.88;;;10.56;100.00
11448;BME280;43755;49.736;8.734;2023-04-23T04:36:26;97211.91;;;10.61;100.00
11448;BME280;43755;49.736;8.734;2023-04-23T04:38:29;97218.22;;;10.58;100.00
11448;BME280;43755;49.736;8.734;2023-04-23T04:40:30;97226.41;;;10.54;100.00
11448;BME280;43755;49.736;8.734;2023-04-23T04:42:32;97230.00;;;10.53;100.00
11448;BME280;43755;49.736;8.734;2023-04-23T04:44:34;97224.44;;;10.57;100.00
11448;BME280;43755;49.736;8.734;2023-04-23T04:46:36;97232.38;;;10.57;100.00
11448;BME280;43755;49.736;8.734;2023-04-23T04:48:39;97227.00;;;10.59;100.00
11448;BME280;43755;49.736;8.734;2023-04-23T04:50:41;97227.59;;;10.48;100.00
11448;BME280;43755;49.736;8.734;2023-04-23T04:52:42;97231.72;;;10.54;100.00
11448;BME280;43755;49.736;8.734;2023-04-23T04:54:45;97235.34;;;10.51;100.00
11448;BME280;43755;49.736;8.734;2023-04-23T04:56:46;97225.63;;;10.52;100.00
11448;BME280;43755;49.736;8.734;2023-04-23T04:58:48;97230.94;;;10.52;100.00
11448;BME280;43755;49.736;8.734;2023-04-23T05:00:49;97229.41;;;10.48;100.00
11448;BME280;43755;49.736;8.734;2023-04-23T05:02:51;97221.34;;;10.49;100.00
11448;BME280;43755;49.736;8.734;2023-04-23T05:04:52;97229.06;;;10.54;100.00
11448;BME280;43755;49.736;8.734;2023-04-23T05:06:54;97233.25;;;10.58;100.00
11448;BME280;43755;49.736;8.734;2023-04-23T05:08:55;97225.81;;;10.64;100.00
11448;BME280;43755;49.736;8.734;2023-04-23T05:10:59;97231.38;;;10.60;100.00
11448;BME280;43755;49.736;8.734;2023-04-23T05:13:00;97228.53;;;10.63;100.00
11448;BME280;43755;49.736;8.734;2023-04-23T05:15:02;97237.25;;;10.65;100.00
11448;BME280;43755;49.736;8.734;2023-04-23T05:17:04;97227.34;;;10.68;100.00
11448;BME280;43755;49.736;8.734;2023-04-23T05:19:06;97239.63;;;10.70;100.00
11448;BME280;43755;49.736;8.734;2023-04-23T05:21:08;97236.72;;;10.74;100.00
11448;BME280;43755;49.736;8.734;2023-04-23T05:23:09;97245.59;;;10.73;100.00
11448;BME280;43755;49.736;8.734;2023-04-23T05:25:11;97243.56;;;10.78;100.00
11448;BME280;43755;49.736;8.734;2023-04-23T05:27:14;97247.41;;;10.88;100.00
11448;BME280;43755;49.736;8.734;2023-04-23T05:29:15;97252.59;;;10.90;100.00
11448;BME280;43755;49.736;8.734;2023-04-23T05:31:18;97249.88;;;10.91;100.00
11448;BME280;43755;49.736;8.734;2023-04-23T05:33:19;97238.34;;;10.92;100.00
11448;BME280;43755;49.736;8.734;2023-04-23T05:35:21;97245.78;;;11.01;100.00
11448;BME280;43755;49.736;8.734;2023-04-23T05:37:22;97236.72;;;11.05;100.00
11448;BME280;43755;49.736;8.734;2023-04-23T05:39:23;97232.69;;;11.14;100.00
11448;BME280;43755;49.736;8.734;2023-04-23T05:41:25;97235.34;;;11.14;100.00
11448;BME280;43755;49.736;8.734;2023-04-23T05:43:28;97236.81;;;11.04;100.00
11448;BME280;43755;49.736;8.734;2023-04-23T05:45:29;97232.38;;;11.04;100.00
11448;BME280;43755;49.736;8.734;2023-04-23T05:47:30;97231.78;;;10.99;100.00
11448;BME280;43755;49.736;8.734;2023-04-23T05:49:32;97230.00;;;11.00;100.00
11448;BME280;43755;49.736;8.734;2023-04-23T05:51:33;97222.41;;;10.94;100.00
11448;BME280;43755;49.736;8.734;2023-04-23T05:53:34;97235.97;;;10.88;100.00
11448;BME280;43755;49.736;8.734;2023-04-23T05:55:36;97231.63;;;10.87;100.00
11448;BME280;43755;49.736;8.734;2023-04-23T05:57:38;97231.69;;;10.85;100.00
11448;BME280;43755;49.736;8.734;2023-04-23T05:59:41;97236.72;;;10.74;100.00
11448;BME280;43755;49.736;8.734;2023-04-23T06:01:42;97230.84;;;10.69;100.00
11448;BME280;43755;49.736;8.734;2023-04-23T06:03:44;97236.66;;;10.76;100.00
11448;BME280;43755;49.736;8.734;2023-04-23T06:05:45;97234.34;;;10.70;100.00
11448;BME280;43755;49.736;8.734;2023-04-23T06:07:46;97235.72;;;10.77;100.00
11448;BME280;43755;49.736;8.734;2023-04-23T06:09:48;97239.91;;;10.81;100.00
11448;BME280;43755;49.736;8.734;2023-04-23T06:11:51;97232.66;;;11.00;100.00
11448;BME280;43755;49.736;8.734;2023-04-23T06:13:53;97234.06;;;11.21;100.00
11448;BME280;43755;49.736;8.734;2023-04-23T06:15:57;97238.28;;;11.39;100.00
11448;BME280;43755;49.736;8.734;2023-04-23T06:17:58;97232.13;;;11.39;100.00
11448;BME280;43755;49.736;8.734;2023-04-23T06:20:00;97234.94;;;11.52;100.00
11448;BME280;43755;49.736;8.734;2023-04-23T06:22:01;97239.69;;;11.61;100.00
11448;BME280;43755;49.736;8.734;2023-04-23T06:24:03;97238.34;;;11.54;100.00
11448;BME280;43755;49.736;8.734;2023-04-23T06:26:04;97242.06;;;11.65;100.00
11448;BME280;43755;49.736;8.734;2023-04-23T06:28:06;97246.84;;;11.74;100.00
11448;BME280;43755;49.736;8.734;2023-04-23T06:30:08;97239.50;;;11.64;100.00
11448;BME280;43755;49.736;8.734;2023-04-23T06:32:10;97244.44;;;11.70;100.00
11448;BME280;43755;49.736;8.734;2023-04-23T06:34:12;97239.44;;;11.65;100.00
11448;BME280;43755;49.736;8.734;2023-04-23T06:36:13;97239.16;;;11.70;100.00
11448;BME280;43755;49.736;8.734;2023-04-23T06:38:15;97227.00;;;11.81;100.00
11448;BME280;43755;49.736;8.734;2023-04-23T06:40:17;97235.88;;;11.80;100.00
11448;BME280;43755;49.736;8.734;2023-04-23T06:42:19;97227.50;;;11.72;100.00
11448;BME280;43755;49.736;8.734;2023-04-23T06:44:20;97231.13;;;11.71;100.00
11448;BME280;43755;49.736;8.734;2023-04-23T06:46:22;97216.25;;;11.69;100.00
11448;BME280;43755;49.736;8.734;2023-04-23T06:48:24;97221.88;;;11.78;100.00
11448;BME280;43755;49.736;8.734;2023-04-23T06:50:26;97219.53;;;11.88;100.00
11448;BME280;43755;49.736;8.734;2023-04-23T06:52:27;97223.56;;;11.79;100.00
11448;BME280;43755;49.736;8.734;2023-04-23T06:54:29;97217.25;;;11.82;100.00
11448;BME280;43755;49.736;8.734;2023-04-23T06:56:30;97215.94;;;11.89;100.00
11448;BME280;43755;49.736;8.734;2023-04-23T06:58:32;97221.06;;;11.92;100.00
11448;BME280;43755;49.736;8.734;2023-04-23T07:00:33;97213.09;;;11.92;100.00
11448;BME280;43755;49.736;8.734;2023-04-23T07:02:35;97215.00;;;12.04;100.00
11448;BME280;43755;49.736;8.734;2023-04-23T07:04:37;97211.31;;;12.07;100.00
11448;BME280;43755;49.736;8.734;2023-04-23T07:06:39;97216.06;;;12.16;100.00
11448;BME280;43755;49.736;8.734;2023-04-23T07:08:41;97223.66;;;12.36;100.00
11448;BME280;43755;49.736;8.734;2023-04-23T07:10:42;97226.56;;;12.17;100.00
11448;BME280;43755;49.736;8.734;2023-04-23T07:12:44;97213.78;;;12.24;100.00
11448;BME280;43755;49.736;8.734;2023-04-23T07:14:45;97221.56;;;12.41;100.00
11448;BME280;43755;49.736;8.734;2023-04-23T07:16:47;97215.56;;;12.66;100.00
11448;BME280;43755;49.736;8.734;2023-04-23T07:18:48;97212.16;;;12.64;100.00
11448;BME280;43755;49.736;8.734;2023-04-23T07:20:51;97212.91;;;12.66;100.00
11448;BME280;43755;49.736;8.734;2023-04-23T07:22:52;97220.53;;;12.85;100.00
11448;BME280;43755;49.736;8.734;2023-04-23T07:24:54;97219.03;;;12.81;100.00
11448;BME280;43755;49.736;8.734;2023-04-23T07:26:55;97216.06;;;12.85;100.00
11448;BME280;43755;49.736;8.734;2023-04-23T07:28:56;97217.63;;;13.02;100.00
11448;BME280;43755;49.736;8.734;2023-04-23T07:30:58;97218.47;;;12.90;100.00
11448;BME280;43755;49.736;8.734;2023-04-23T07:32:59;97222.47;;;13.09;100.00
11448;BME280;43755;49.736;8.734;2023-04-23T07:35:00;97216.69;;;13.17;100.00
11448;BME280;43755;49.736;8.734;2023-04-23T07:37:05;97213.78;;;13.34;100.00
11448;BME280;43755;49.736;8.734;2023-04-23T07:39:06;97205.22;;;13.17;100.00
11448;BME280;43755;49.736;8.734;2023-04-23T07:41:08;97202.06;;;13.24;100.00
11448;BME280;43755;49.736;8.734;2023-04-23T07:43:09;97206.00;;;13.31;100.00
11448;BME280;43755;49.736;8.734;2023-04-23T07:45:11;97203.78;;;13.25;100.00
11448;BME280;43755;49.736;8.734;2023-04-23T07:47:13;97201.38;;;13.21;100.00
11448;BME280;43755;49.736;8.734;2023-04-23T07:49:14;97203.88;;;13.24;100.00
11448;BME280;43755;49.736;8.734;2023-04-23T07:51:15;97194.69;;;13.15;100.00
11448;BME280;43755;49.736;8.734;2023-04-23T07:53:18;97189.91;;;13.20;100.00
11448;BME280;43755;49.736;8.734;2023-04-23T07:55:20;97196.59;;;13.13;100.00
11448;BME280;43755;49.736;8.734;2023-04-23T07:57:21;97197.06;;;13.05;100.00
11448;BME280;43755;49.736;8.734;2023-04-23T07:59:23;97195.53;;;13.16;100.00
11448;BME280;43755;49.736;8.734;2023-04-23T08:01:25;97196.28;;;13.18;100.00
11448;BME280;43755;49.736;8.734;2023-04-23T08:03:27;97196.19;;;13.19;100.00
11448;BME280;43755;49.736;8.734;2023-04-23T08:05:28;97199.63;;;13.34;100.00
11448;BME280;43755;49.736;8.734;2023-04-23T08:07:30;97195.19;;;13.34;100.00
11448;BME280;43755;49.736;8.734;2023-04-23T08:09:32;97199.22;;;13.40;100.00
11448;BME280;43755;49.736;8.734;2023-04-23T08:11:34;97201.81;;;13.54;100.00
11448;BME280;43755;49.736;8.734;2023-04-23T08:13:35;97189.81;;;13.61;100.00
11448;BME280;43755;49.736;8.734;2023-04-23T08:15:37;97199.41;;;13.76;100.00
11448;BME280;43755;49.736;8.734;2023-04-23T08:17:38;97191.75;;;13.72;100.00
11448;BME280;43755;49.736;8.734;2023-04-23T08:19:40;97188.03;;;13.87;100.00
11448;BME280;43755;49.736;8.734;2023-04-23T08:21:41;97190.06;;;13.96;100.00
11448;BME280;43755;49.736;8.734;2023-04-23T08:23:43;97188.88;;;13.75;100.00
11448;BME280;43755;49.736;8.734;2023-04-23T08:25:45;97185.47;;;13.73;100.00
11448;BME280;43755;49.736;8.734;2023-04-23T08:27:47;97179.53;;;13.82;100.00
11448;BME280;43755;49.736;8.734;2023-04-23T08:29:48;97169.84;;;13.81;100.00
11448;BME280;43755;49.736;8.734;2023-04-23T08:31:50;97183.03;;;13.82;100.00
11448;BME280;43755;49.736;8.734;2023-04-23T08:33:52;97180.72;;;13.78;100.00
11448;BME280;43755;49.736;8.734;2023-04-23T08:35:54;97179.63;;;13.93;100.00
11448;BME280;43755;49.736;8.734;2023-04-23T08:37:55;97181.13;;;13.97;100.00
11448;BME280;43755;49.736;8.734;2023-04-23T08:39:57;97182.50;;;14.03;100.00
11448;BME280;43755;49.736;8.734;2023-04-23T08:42:03;97183.88;;;14.21;100.00
11448;BME280;43755;49.736;8.734;2023-04-23T08:44:11;97186.63;;;14.32;100.00
11448;BME280;43755;49.736;8.734;2023-04-23T08:46:13;97189.00;;;14.24;100.00
11448;BME280;43755;49.736;8.734;2023-04-23T08:48:17;97184.00;;;14.19;100.00
11448;BME280;43755;49.736;8.734;2023-04-23T08:50:18;97190.63;;;14.01;100.00
11448;BME280;43755;49.736;8.734;2023-04-23T08:52:22;97188.13;;;13.85;100.00
11448;BME280;43755;49.736;8.734;2023-04-23T08:54:25;97195.44;;;13.57;100.00
11448;BME280;43755;49.736;8.734;2023-04-23T08:56:27;97190.72;;;13.35;100.00
11448;BME280;43755;49.736;8.734;2023-04-23T08:58:30;97185.47;;;13.60;100.00
11448;BME280;43755;49.736;8.734;2023-04-23T09:00:32;97184.50;;;13.61;100.00
11448;BME280;43755;49.736;8.734;2023-04-23T09:02:34;97177.91;;;13.54;100.00
11448;BME280;43755;49.736;8.734;2023-04-23T09:04:36;97175.56;;;13.62;100.00
11448;BME280;43755;49.736;8.734;2023-04-23T09:06:38;97176.00;;;13.69;100.00
11448;BME280;43755;49.736;8.734;2023-04-23T09:08:40;97169.31;;;13.63;100.00
11448;BME280;43755;49.736;8.734;2023-04-23T09:10:42;97165.69;;;13.64;100.00
11448;BME280;43755;49.736;8.734;2023-04-23T09:12:44;97162.09;;;13.65;100.00
11448;BME280;43755;49.736;8.734;2023-04-23T09:14:48;97164.84;;;13.76;100.00
11448;BME280;43755;49.736;8.734;2023-04-23T09:16:50;97162.28;;;13.75;100.00
11448;BME280;43755;49.736;8.734;2023-04-23T09:18:52;97161.69;;;13.84;100.00
11448;BME280;43755;49.736;8.734;2023-04-23T09:20:54;97165.28;;;14.08;100.00
11448;BME280;43755;49.736;8.734;2023-04-23T09:22:55;97168.47;;;14.13;100.00
11448;BME280;43755;49.736;8.734;2023-04-23T09:25:00;97164.13;;;14.25;100.00
11448;BME280;43755;49.736;8.734;2023-04-23T09:27:01;97152.06;;;14.32;100.00
11448;BME280;43755;49.736;8.734;2023-04-23T09:29:12;97156.88;;;14.40;100.00
11448;BME280;43755;49.736;8.734;2023-04-23T09:31:20;97155.00;;;14.65;100.00
11448;BME280;43755;49.736;8.734;2023-04-23T09:33:23;97152.81;;;14.83;100.00
11448;BME280;43755;49.736;8.734;2023-04-23T09:35:26;97149.78;;;15.00;100.00
11448;BME280;43755;49.736;8.734;2023-04-23T09:37:28;97148.75;;;14.90;100.00
11448;BME280;43755;49.736;8.734;2023-04-23T09:39:32;97143.47;;;15.01;100.00
11448;BME280;43755;49.736;8.734;2023-04-23T09:41:34;97141.66;;;15.02;99.77
11448;BME280;43755;49.736;8.734;2023-04-23T09:43:35;97141.88;;;15.23;100.00
11448;BME280;43755;49.736;8.734;2023-04-23T09:45:46;97135.75;;;15.44;99.48
11448;BME280;43755;49.736;8.734;2023-04-23T09:47:51;97135.34;;;15.62;96.57
11448;BME280;43755;49.736;8.734;2023-04-23T09:49:52;97130.22;;;15.93;97.59
11448;BME280;43755;49.736;8.734;2023-04-23T09:51:54;97136.75;;;15.78;87.28
11448;BME280;43755;49.736;8.734;2023-04-23T09:53:56;97130.94;;;15.84;83.79
11448;BME280;43755;49.736;8.734;2023-04-23T09:55:57;97139.16;;;15.70;84.96
11448;BME280;43755;49.736;8.734;2023-04-23T09:58:00;97131.28;;;15.80;86.67
11448;BME280;43755;49.736;8.734;2023-04-23T10:00:12;97138.22;;;15.93;91.36
11448;BME280;43755;49.736;8.734;2023-04-23T10:02:14;97137.47;;;15.91;100.00
11448;BME280;43755;49.736;8.734;2023-04-23T10:04:18;97126.47;;;15.96;93.09
11448;BME280;43755;49.736;8.734;2023-04-23T10:06:26;97131.06;;;15.83;93.18
11448;BME280;43755;49.736;8.734;2023-04-23T10:08:30;97121.38;;;15.93;96.92
11448;BME280;43755;49.736;8.734;2023-04-23T10:10:33;97122.69;;;15.87;89.36
11448;BME280;43755;49.736;8.734;2023-04-23T10:12:35;97116.22;;;15.68;90.92
11448;BME280;43755;49.736;8.734;2023-04-23T10:14:37;97117.72;;;15.72;89.49
11448;BME280;43755;49.736;8.734;2023-04-23T10:16:39;97123.13;;;15.59;94.16
11448;BME280;43755;49.736;8.734;2023-04-23T10:18:41;97120.38;;;15.72;92.40
11448;BME280;43755;49.736;8.734;2023-04-23T10:20:44;97121.97;;;15.50;94.04
11448;BME280;43755;49.736;8.734;2023-04-23T10:22:46;97118.03;;;15.56;95.89
11448;BME280;43755;49.736;8.734;2023-04-23T10:24:51;97126.56;;;15.83;96.76
11448;BME280;43755;49.736;8.734;2023-04-23T10:26:56;97121.84;;;15.87;89.94
11448;BME280;43755;49.736;8.734;2023-04-23T10:28:59;97122.19;;;15.71;87.18
11448;BME280;43755;49.736;8.734;2023-04-23T10:31:02;97126.09;;;15.89;89.12
11448;BME280;43755;49.736;8.734;2023-04-23T10:33:06;97122.09;;;16.06;86.60
11448;BME280;43755;49.736;8.734;2023-04-23T10:35:08;97110.22;;;16.21;85.68
11448;BME280;43755;49.736;8.734;2023-04-23T10:37:12;97109.47;;;16.53;86.00
11448;BME280;43755;49.736;8.734;2023-04-23T10:39:14;97108.94;;;16.81;87.77